Time;durP1;ratioP1;P1;durP2;ratioP2;P2;SDS_P1;SDS_P2;PMS_P1;PMS_P2;Temp;Humidity;BMP_temperature;BMP_pressure;BME280_temperature;BME280_humidity;BME280_pressure;Samples;Min_cycle;Max_cycle;Signal;HPM_P1;HPM_P2
2022/05/23 00:02:12;;;;;;;10.23;5.40;;;;;;;;;;4993103;28;20173;-67
2022/05/23 00:04:37;;;;;;;10.05;5.75;;;;;;;;;;4993230;28;20038;-68
2022/05/23 00:07:03;;;;;;;7.45;5.45;;;;;;;;;;5002042;28;20379;-68
2022/05/23 00:09:29;;;;;;;10.60;5.50;;;;;;;;;;4997280;28;20113;-68
2022/05/23 00:11:55;;;;;;;14.95;5.57;;;;;;;;;;4990536;28;20504;-67
2022/05/23 00:14:21;;;;;;;11.23;5.70;;;;;;;;;;4988578;28;20073;-69
2022/05/23 00:16:48;;;;;;;11.52;5.55;;;;;;;;;;4991891;28;20113;-66
2022/05/23 00:19:15;;;;;;;9.75;5.30;;;;;;;;;;4991293;28;20022;-69
2022/05/23 00:21:42;;;;;;;9.82;5.57;;;;;;;;;;4992284;28;20046;-67
2022/05/23 00:24:10;;;;;;;9.60;5.78;;;;;;;;;;4993107;28;20034;-68
2022/05/23 00:26:36;;;;;;;9.50;5.32;;;;;;;;;;4989454;28;20049;-67
2022/05/23 00:29:03;;;;;;;8.73;5.57;;;;;;;;;;4992769;28;20019;-68
2022/05/23 00:31:29;;;;;;;8.30;5.20;;;;;;;;;;4991818;28;20025;-68
2022/05/23 00:36:38;;;;;;;8.25;5.40;;;;;;;;;;4993323;28;20037;-68
2022/05/23 00:39:05;;;;;;;9.38;5.38;;;;;;;;;;4992734;28;20034;-68
2022/05/23 00:44:31;;;;;;;8.88;6.05;;;;;;;;;;4992098;28;20045;-68
2022/05/23 00:47:03;;;;;;;11.88;6.82;;;;;;;;;;4992629;28;20019;-68
2022/05/23 00:49:35;;;;;;;14.88;9.30;;;;;;;;;;4992478;28;20045;-68
2022/05/23 00:52:07;;;;;;;14.55;8.48;;;;;;;;;;4992793;28;20031;-67
2022/05/23 00:54:40;;;;;;;12.35;8.27;;;;;;;;;;4992700;28;20034;-68
2022/05/23 00:57:09;;;;;;;12.15;7.35;;;;;;;;;;4992441;28;20031;-69
2022/05/23 00:59:34;;;;;;;13.50;6.97;;;;;;;;;;4992947;28;20081;-69
2022/05/23 01:02:02;;;;;;;12.25;6.25;;;;;;;;;;4996449;28;20030;-68
2022/05/23 01:04:30;;;;;;;9.98;5.82;;;;;;;;;;4996674;28;20109;-69
2022/05/23 01:06:56;;;;;;;10.63;5.57;;;;;;;;;;4995753;28;20034;-69
2022/05/23 01:09:24;;;;;;;10.02;5.15;;;;;;;;;;4996255;28;20030;-68
2022/05/23 01:11:49;;;;;;;7.13;4.53;;;;;;;;;;4996400;28;20503;-69
2022/05/23 01:14:15;;;;;;;8.05;5.43;;;;;;;;;;4996343;28;20034;-68
2022/05/23 01:16:40;;;;;;;6.78;4.72;;;;;;;;;;4996264;28;20022;-68
2022/05/23 01:19:06;;;;;;;7.85;5.00;;;;;;;;;;4996120;28;20061;-68
2022/05/23 01:21:45;;;;;;;7.18;4.47;;;;;;;;;;4995818;28;20042;-68
2022/05/23 01:24:44;;;;;;;7.93;5.00;;;;;;;;;;4996307;28;20068;-68
2022/05/23 01:27:10;;;;;;;10.13;6.57;;;;;;;;;;4994809;28;20424;-68
2022/05/23 01:29:36;;;;;;;11.73;7.15;;;;;;;;;;4995637;28;20022;-69
2022/05/23 01:32:02;;;;;;;12.68;8.07;;;;;;;;;;4995117;28;20035;-69
2022/05/23 01:34:28;;;;;;;12.95;7.45;;;;;;;;;;4995914;28;20575;-68
2022/05/23 01:36:54;;;;;;;10.80;6.28;;;;;;;;;;4995758;28;20117;-68
2022/05/23 01:39:19;;;;;;;9.88;6.15;;;;;;;;;;4995861;28;20026;-67
2022/05/23 01:41:45;;;;;;;10.98;6.57;;;;;;;;;;4995858;28;20443;-69
2022/05/23 01:44:10;;;;;;;8.25;5.43;;;;;;;;;;4995470;28;20066;-66
2022/05/23 01:46:36;;;;;;;11.80;5.88;;;;;;;;;;4994110;28;20050;-65
2022/05/23 01:49:02;;;;;;;10.02;5.38;;;;;;;;;;4994547;28;20034;-66
2022/05/23 01:51:28;;;;;;;7.28;4.78;;;;;;;;;;4995655;28;20030;-69
2022/05/23 01:53:53;;;;;;;10.10;4.35;;;;;;;;;;4995623;28;20074;-68
2022/05/23 01:56:19;;;;;;;7.70;4.63;;;;;;;;;;4995075;28;20057;-66
2022/05/23 02:01:28;;;;;;;10.57;5.18;;;;;;;;;;4995543;28;20085;-68
2022/05/23 02:03:54;;;;;;;10.05;5.30;;;;;;;;;;4995479;28;20030;-65
2022/05/23 02:06:19;;;;;;;8.75;5.30;;;;;;;;;;4995083;28;20495;-66
2022/05/23 02:08:45;;;;;;;8.13;5.50;;;;;;;;;;4995146;28;20076;-65
2022/05/23 02:11:11;;;;;;;9.82;5.30;;;;;;;;;;5004476;28;20030;-67
2022/05/23 02:13:39;;;;;;;9.05;5.38;;;;;;;;;;5002705;28;20041;-66
2022/05/23 02:16:06;;;;;;;10.25;6.20;;;;;;;;;;4992920;28;20030;-65
2022/05/23 02:18:31;;;;;;;7.05;4.68;;;;;;;;;;4997265;28;20049;-68
2022/05/23 02:20:57;;;;;;;8.80;5.00;;;;;;;;;;4994692;28;20027;-68
2022/05/23 02:23:23;;;;;;;8.60;4.75;;;;;;;;;;4994152;28;20089;-66
2022/05/23 02:25:48;;;;;;;6.25;4.53;;;;;;;;;;4995014;28;20026;-67
2022/05/23 02:28:13;;;;;;;6.70;4.05;;;;;;;;;;4994988;28;20538;-67
2022/05/23 02:30:40;;;;;;;6.68;3.95;;;;;;;;;;4994724;28;20117;-66
2022/05/23 02:33:05;;;;;;;13.45;4.22;;;;;;;;;;4995942;28;20137;-67
2022/05/23 02:35:31;;;;;;;7.13;3.97;;;;;;;;;;5007802;28;20046;-65
2022/05/23 02:37:56;;;;;;;7.88;4.47;;;;;;;;;;4994527;28;20026;-65
2022/05/23 02:40:22;;;;;;;5.72;4.05;;;;;;;;;;4994395;28;20031;-67
2022/05/23 02:42:48;;;;;;;6.55;4.28;;;;;;;;;;4994497;28;20109;-66
2022/05/23 02:45:13;;;;;;;6.53;4.15;;;;;;;;;;4994625;28;20709;-64
2022/05/23 02:47:39;;;;;;;6.43;4.18;;;;;;;;;;4993255;28;20105;-65
2022/05/23 02:50:06;;;;;;;5.75;4.13;;;;;;;;;;4992488;28;20038;-65
2022/05/23 02:52:31;;;;;;;7.63;4.20;;;;;;;;;;4994686;28;20033;-68
2022/05/23 02:54:57;;;;;;;7.85;4.60;;;;;;;;;;4994299;28;20022;-67
2022/05/23 02:57:22;;;;;;;5.95;4.15;;;;;;;;;;4993602;28;20030;-68
2022/05/23 02:59:47;;;;;;;7.25;4.00;;;;;;;;;;4993846;28;20208;-68
2022/05/23 03:04:57;;;;;;;9.50;4.38;;;;;;;;;;4994123;28;20032;-69
2022/05/23 03:07:22;;;;;;;7.72;4.65;;;;;;;;;;4993968;28;20026;-68
2022/05/23 03:09:48;;;;;;;6.10;4.05;;;;;;;;;;4992832;28;20105;-69
2022/05/23 03:12:13;;;;;;;6.45;3.60;;;;;;;;;;4993908;28;20467;-69
2022/05/23 03:14:39;;;;;;;7.78;3.83;;;;;;;;;;4993808;28;20030;-68
2022/05/23 03:17:07;;;;;;;8.80;4.07;;;;;;;;;;4993285;28;20043;-65
2022/05/23 03:19:37;;;;;;;6.40;3.70;;;;;;;;;;4993808;28;20041;-69
2022/05/23 03:27:31;;;;;;;6.20;3.75;;;;;;;;;;4992091;28;20084;-67
2022/05/23 03:29:56;;;;;;;5.15;3.53;;;;;;;;;;4993246;28;20435;-69
2022/05/23 03:32:23;;;;;;;4.45;3.30;;;;;;;;;;4992957;28;20372;-68
2022/05/23 03:34:51;;;;;;;5.53;3.33;;;;;;;;;;4992326;28;20030;-68
2022/05/23 03:37:18;;;;;;;10.13;4.03;;;;;;;;;;4992910;28;20031;-69
2022/05/23 03:39:46;;;;;;;9.38;4.18;;;;;;;;;;4992097;28;20053;-69
2022/05/23 03:42:14;;;;;;;6.55;3.83;;;;;;;;;;4992635;28;20467;-69
2022/05/23 03:44:42;;;;;;;7.40;3.70;;;;;;;;;;4992785;28;20026;-65
2022/05/23 03:47:10;;;;;;;5.25;3.60;;;;;;;;;;4993638;28;20030;-68
2022/05/23 03:49:38;;;;;;;5.20;3.78;;;;;;;;;;4980965;28;20495;-67
2022/05/23 03:52:08;;;;;;;13.88;4.28;;;;;;;;;;4978251;28;20475;-69
2022/05/23 03:54:34;;;;;;;;;;;;;;;;;;4994014;28;20097;-66
2022/05/23 03:57:01;;;;;;;7.30;3.22;;;;;;;;;;4992660;28;19918;-65
2022/05/23 03:59:27;;;;;;;6.40;3.90;;;;;;;;;;4993621;28;20037;-65
2022/05/23 04:01:57;;;;;;;5.68;3.85;;;;;;;;;;4993648;28;20041;-64
2022/05/23 04:04:24;;;;;;;5.63;3.92;;;;;;;;;;4993703;28;20133;-68
2022/05/23 04:06:49;;;;;;;7.68;3.72;;;;;;;;;;4992612;28;20038;-66
2022/05/23 04:09:15;;;;;;;5.45;4.20;;;;;;;;;;4992487;28;20045;-69
2022/05/23 04:11:40;;;;;;;6.38;4.22;;;;;;;;;;4992603;28;20038;-65
2022/05/23 04:14:06;;;;;;;6.25;3.90;;;;;;;;;;4993397;28;20053;-69
2022/05/23 04:16:31;;;;;;;8.10;4.18;;;;;;;;;;4993453;28;20022;-68
2022/05/23 04:18:57;;;;;;;7.72;3.92;;;;;;;;;;4993825;28;20030;-66
2022/05/23 04:21:24;;;;;;;6.60;3.92;;;;;;;;;;4983239;28;20034;-68
2022/05/23 04:23:50;;;;;;;6.15;4.13;;;;;;;;;;4992936;28;20161;-68
2022/05/23 04:26:15;;;;;;;7.65;3.45;;;;;;;;;;4992873;28;20471;-66
2022/05/23 04:28:41;;;;;;;5.88;3.60;;;;;;;;;;4993228;28;20041;-66
2022/05/23 04:31:08;;;;;;;7.00;4.05;;;;;;;;;;4993130;28;20387;-65
2022/05/23 04:36:17;;;;;;;7.47;3.75;;;;;;;;;;4992764;28;20032;-69
2022/05/23 04:38:43;;;;;;;5.30;3.45;;;;;;;;;;4992369;28;20520;-66
2022/05/23 04:41:09;;;;;;;6.93;4.35;;;;;;;;;;4992834;28;20026;-68
2022/05/23 04:43:35;;;;;;;11.13;3.90;;;;;;;;;;4992790;28;20037;-68
2022/05/23 04:46:01;;;;;;;5.18;3.22;;;;;;;;;;4993094;28;20030;-68
2022/05/23 04:51:10;;;;;;;5.65;3.70;;;;;;;;;;4992982;28;20041;-69
2022/05/23 04:53:36;;;;;;;6.43;3.35;;;;;;;;;;4992777;28;20026;-65
2022/05/23 04:56:02;;;;;;;6.60;3.22;;;;;;;;;;4991780;28;20023;-67
2022/05/23 04:58:28;;;;;;;6.78;3.47;;;;;;;;;;4992954;28;20027;-65
2022/05/23 05:00:54;;;;;;;9.30;3.20;;;;;;;;;;4992973;28;20085;-69
2022/05/23 05:03:20;;;;;;;6.78;2.88;;;;;;;;;;4993145;28;20022;-65
2022/05/23 05:05:46;;;;;;;6.03;3.13;;;;;;;;;;4992995;28;20495;-67
2022/05/23 05:08:12;;;;;;;5.38;2.78;;;;;;;;;;5007174;28;20030;-65
2022/05/23 05:10:38;;;;;;;7.15;3.60;;;;;;;;;;4991001;28;20105;-66
2022/05/23 05:13:04;;;;;;;6.03;3.10;;;;;;;;;;4992710;28;20037;-65
2022/05/23 05:15:30;;;;;;;6.95;3.65;;;;;;;;;;4992839;28;20030;-67
2022/05/23 05:17:56;;;;;;;7.25;3.28;;;;;;;;;;4992804;28;20337;-65
2022/05/23 05:20:23;;;;;;;7.15;3.30;;;;;;;;;;4992676;28;20019;-70
2022/05/23 05:22:50;;;;;;;5.40;3.35;;;;;;;;;;4992416;28;20061;-68
2022/05/23 05:25:19;;;;;;;8.98;3.67;;;;;;;;;;4992543;28;20030;-65
2022/05/23 05:27:45;;;;;;;4.65;3.03;;;;;;;;;;4992738;28;20114;-65
2022/05/23 05:30:14;;;;;;;5.18;3.60;;;;;;;;;;4992485;28;20454;-66
2022/05/23 05:33:07;;;;;;;6.00;3.20;;;;;;;;;;4992764;28;20035;-66
2022/05/23 05:35:38;;;;;;;6.82;3.03;;;;;;;;;;4991421;28;20030;-65
2022/05/23 05:38:15;;;;;;;;;;;;;;;;;;4992992;28;20034;-66
2022/05/23 05:40:44;;;;;;;4.70;2.58;;;;;;;;;;4992798;28;19996;-66
2022/05/23 05:43:21;;;;;;;5.65;3.08;;;;;;;;;;4992661;28;20027;-67
2022/05/23 05:45:53;;;;;;;7.80;3.10;;;;;;;;;;4992706;28;20054;-65
2022/05/23 05:48:19;;;;;;;6.68;2.92;;;;;;;;;;4995685;28;20027;-65
2022/05/23 05:50:47;;;;;;;7.43;2.47;;;;;;;;;;4994873;28;20034;-65
2022/05/23 05:53:28;;;;;;;6.15;2.53;;;;;;;;;;4995694;28;20052;-65
2022/05/23 05:55:53;;;;;;;5.93;2.45;;;;;;;;;;4996005;28;20030;-65
2022/05/23 05:58:19;;;;;;;5.40;2.42;;;;;;;;;;4995730;28;20069;-66
2022/05/23 06:00:45;;;;;;;5.75;2.92;;;;;;;;;;4995917;28;20053;-65
2022/05/23 06:03:10;;;;;;;3.47;2.45;;;;;;;;;;4995965;28;20065;-65
2022/05/23 06:11:23;;;;;;;5.68;2.90;;;;;;;;;;4995863;28;20030;-65
2022/05/23 06:13:50;;;;;;;3.58;2.35;;;;;;;;;;4976387;28;20041;-65
2022/05/23 06:16:16;;;;;;;3.63;2.17;;;;;;;;;;4976322;28;20089;-66
2022/05/23 06:18:42;;;;;;;7.18;2.88;;;;;;;;;;4991391;28;20090;-66
2022/05/23 06:21:09;;;;;;;3.55;1.75;;;;;;;;;;4975727;28;20043;-66
2022/05/23 06:23:36;;;;;;;6.93;2.20;;;;;;;;;;4976150;28;20155;-69
2022/05/23 06:26:03;;;;;;;8.75;2.10;;;;;;;;;;4976144;28;20050;-69
2022/05/23 06:28:29;;;;;;;3.40;1.75;;;;;;;;;;4975988;28;20039;-69
2022/05/23 06:30:57;;;;;;;6.97;2.20;;;;;;;;;;4976117;28;20030;-69
2022/05/23 06:33:22;;;;;;;4.38;1.80;;;;;;;;;;4976034;28;20046;-69
2022/05/23 06:35:48;;;;;;;5.50;2.30;;;;;;;;;;4975689;28;20035;-69
2022/05/23 06:38:14;;;;;;;4.47;2.38;;;;;;;;;;4975946;28;20034;-69
2022/05/23 06:40:39;;;;;;;4.28;2.25;;;;;;;;;;4975955;28;20027;-69
2022/05/23 06:43:05;;;;;;;4.82;2.30;;;;;;;;;;4975913;28;20101;-68
2022/05/23 06:45:30;;;;;;;3.28;2.20;;;;;;;;;;4975661;28;20019;-68
2022/05/23 06:47:57;;;;;;;4.43;1.67;;;;;;;;;;4975718;28;20018;-66
2022/05/23 06:50:22;;;;;;;3.65;2.30;;;;;;;;;;4975603;28;20524;-69
2022/05/23 06:52:48;;;;;;;2.78;1.67;;;;;;;;;;4975510;28;20026;-69
2022/05/23 06:55:13;;;;;;;3.00;1.88;;;;;;;;;;4975553;28;20033;-70
2022/05/23 06:57:39;;;;;;;3.13;1.95;;;;;;;;;;4975027;28;20026;-69
2022/05/23 07:00:09;;;;;;;4.40;1.60;;;;;;;;;;4975443;28;20031;-69
2022/05/23 07:02:36;;;;;;;5.25;1.50;;;;;;;;;;4984368;28;20065;-68
2022/05/23 07:13:13;;;;;;;4.43;1.50;;;;;;;;;;5013814;28;20029;-66
2022/05/23 07:15:46;;;;;;;2.85;1.50;;;;;;;;;;5013751;28;20022;-68
2022/05/23 07:18:12;;;;;;;2.88;1.63;;;;;;;;;;5013833;28;20022;-66
2022/05/23 07:20:38;;;;;;;2.40;1.38;;;;;;;;;;5013723;28;20034;-66
2022/05/23 07:23:03;;;;;;;4.22;1.60;;;;;;;;;;5013651;28;20499;-67
2022/05/23 07:25:29;;;;;;;3.65;1.75;;;;;;;;;;5013418;28;20061;-68
2022/05/23 07:27:54;;;;;;;3.55;1.30;;;;;;;;;;5013667;28;20387;-68
2022/05/23 07:30:21;;;;;;;3.22;1.30;;;;;;;;;;5013806;28;20030;-67
2022/05/23 07:32:47;;;;;;;3.00;1.40;;;;;;;;;;5013637;28;20045;-66
2022/05/23 07:35:12;;;;;;;2.78;1.40;;;;;;;;;;5013208;28;20025;-69
2022/05/23 07:37:38;;;;;;;2.33;1.27;;;;;;;;;;5013097;28;20443;-66
2022/05/23 07:40:04;;;;;;;6.63;1.30;;;;;;;;;;5013502;28;20022;-65
2022/05/23 07:42:29;;;;;;;3.70;1.52;;;;;;;;;;5013287;28;20120;-65
2022/05/23 07:44:55;;;;;;;2.63;1.23;;;;;;;;;;5013347;28;20068;-65
2022/05/23 07:47:20;;;;;;;1.88;1.10;;;;;;;;;;5013321;28;20030;-67
2022/05/23 07:49:47;;;;;;;4.03;1.33;;;;;;;;;;5013269;28;20109;-65
2022/05/23 07:52:13;;;;;;;2.90;1.15;;;;;;;;;;5013308;28;20030;-68
2022/05/23 08:00:33;;;;;;;0.98;0.85;;;;;;;;;;4991423;28;20416;-67
2022/05/23 08:03:13;;;;;;;2.60;1.00;;;;;;;;;;4976830;28;20480;-66
2022/05/23 08:05:39;;;;;;;;;;;;;;;;;;4971916;28;20043;-67
2022/05/23 08:08:04;;;;;;;3.05;1.10;;;;;;;;;;4971317;28;19940;-68
2022/05/23 08:10:30;;;;;;;12.00;6.13;;;;;;;;;;4971222;28;20282;-66
2022/05/23 08:12:57;;;;;;;3.30;1.10;;;;;;;;;;4971758;28;20058;-67
2022/05/23 08:15:26;;;;;;;2.95;1.30;;;;;;;;;;4971234;28;20038;-68
2022/05/23 08:17:52;;;;;;;3.83;2.03;;;;;;;;;;4971984;28;20134;-66
2022/05/23 08:20:17;;;;;;;3.53;1.10;;;;;;;;;;4971619;28;20550;-67
2022/05/23 08:22:44;;;;;;;2.00;1.20;;;;;;;;;;4971324;28;20055;-66
2022/05/23 08:25:10;;;;;;;5.38;3.30;;;;;;;;;;4971191;28;20039;-64
2022/05/23 08:27:36;;;;;;;3.85;1.30;;;;;;;;;;4971418;28;20043;-65
2022/05/23 08:30:05;;;;;;;3.33;1.48;;;;;;;;;;4972246;28;20030;-66
2022/05/23 08:32:31;;;;;;;2.47;1.70;;;;;;;;;;4993182;28;20448;-67
2022/05/23 08:34:56;;;;;;;2.80;1.20;;;;;;;;;;4992466;28;20114;-66
2022/05/23 08:37:22;;;;;;;5.28;1.80;;;;;;;;;;4992915;28;20057;-65
2022/05/23 08:39:47;;;;;;;2.25;1.30;;;;;;;;;;4992762;28;20472;-66
2022/05/23 08:42:42;;;;;;;13.95;2.72;;;;;;;;;;4992400;28;20498;-66
2022/05/23 08:45:21;;;;;;;3.55;1.30;;;;;;;;;;4992224;28;20096;-66
2022/05/23 08:48:03;;;;;;;2.13;1.25;;;;;;;;;;4992680;28;20109;-66
2022/05/23 08:50:35;;;;;;;2.97;1.52;;;;;;;;;;4992860;28;20217;-68
2022/05/23 08:53:11;;;;;;;3.03;1.17;;;;;;;;;;4992752;28;20037;-67
2022/05/23 08:55:41;;;;;;;2.80;1.40;;;;;;;;;;4992574;28;20051;-66
2022/05/23 08:58:10;;;;;;;2.70;1.30;;;;;;;;;;4992935;28;20030;-68
2022/05/23 09:00:46;;;;;;;2.35;1.30;;;;;;;;;;4993071;28;20033;-66
2022/05/23 09:03:28;;;;;;;3.33;1.58;;;;;;;;;;4992750;28;20081;-68
2022/05/23 09:06:12;;;;;;;1.45;0.90;;;;;;;;;;4992672;28;20033;-65
2022/05/23 09:08:51;;;;;;;1.10;0.80;;;;;;;;;;4973576;28;20030;-65
2022/05/23 09:11:35;;;;;;;3.35;1.33;;;;;;;;;;4973372;28;20503;-65
2022/05/23 09:14:00;;;;;;;2.70;1.30;;;;;;;;;;4973325;28;20121;-68
2022/05/23 09:16:42;;;;;;;4.05;1.10;;;;;;;;;;4973068;28;20058;-67
2022/05/23 09:19:20;;;;;;;2.15;1.30;;;;;;;;;;4973268;28;20096;-67
2022/05/23 09:24:52;;;;;;;3.35;1.50;;;;;;;;;;4976935;28;20033;-65
2022/05/23 09:27:36;;;;;;;2.33;1.30;;;;;;;;;;4973319;28;20137;-67
2022/05/23 09:30:08;;;;;;;2.70;1.30;;;;;;;;;;4976363;28;20023;-65
2022/05/23 09:32:54;;;;;;;3.78;1.90;;;;;;;;;;4976835;28;20034;-66
2022/05/23 09:35:25;;;;;;;4.10;1.60;;;;;;;;;;4976797;28;20035;-67
2022/05/23 09:38:11;;;;;;;2.42;1.70;;;;;;;;;;4976824;28;20408;-65
2022/05/23 09:40:38;;;;;;;2.45;1.40;;;;;;;;;;4976908;28;20034;-65
2022/05/23 09:49:13;;;;;;;2.15;1.30;;;;;;;;;;4976621;28;20037;-66
2022/05/23 09:51:54;;;;;;;2.42;1.20;;;;;;;;;;4976614;28;20110;-67
2022/05/23 09:54:26;;;;;;;2.00;1.23;;;;;;;;;;4976515;28;20062;-68
2022/05/23 09:56:52;;;;;;;3.42;1.52;;;;;;;;;;4976601;28;20078;-67
2022/05/23 09:59:29;;;;;;;2.90;1.40;;;;;;;;;;4976227;28;20114;-67
2022/05/23 10:01:55;;;;;;;6.15;1.60;;;;;;;;;;4981710;28;20983;-67
2022/05/23 10:04:27;;;;;;;2.65;1.40;;;;;;;;;;4995792;28;20097;-67
2022/05/23 10:06:53;;;;;;;3.35;1.45;;;;;;;;;;4995539;28;20088;-67
2022/05/23 10:09:37;;;;;;;2.03;1.20;;;;;;;;;;4994509;28;20388;-68
2022/05/23 10:12:08;;;;;;;3.95;1.50;;;;;;;;;;4995449;28;20480;-68
2022/05/23 10:14:47;;;;;;;2.45;1.13;;;;;;;;;;4995413;28;20126;-68
2022/05/23 10:17:30;;;;;;;3.03;1.45;;;;;;;;;;4995354;28;20026;-68
2022/05/23 10:20:29;;;;;;;2.28;1.30;;;;;;;;;;4995459;28;20042;-68
2022/05/23 10:23:00;;;;;;;3.25;1.40;;;;;;;;;;4995303;28;20077;-67
2022/05/23 10:25:39;;;;;;;3.22;1.20;;;;;;;;;;4995134;28;20022;-68
2022/05/23 10:28:16;;;;;;;3.22;1.33;;;;;;;;;;4995191;28;20125;-68
2022/05/23 10:30:54;;;;;;;2.58;1.30;;;;;;;;;;4995640;28;20038;-68
2022/05/23 10:33:19;;;;;;;3.33;1.27;;;;;;;;;;4993870;28;20030;-68
2022/05/23 10:35:58;;;;;;;2.70;1.20;;;;;;;;;;4995125;28;20030;-68
2022/05/23 10:44:24;;;;;;;2.08;1.27;;;;;;;;;;4995082;28;20439;-67
2022/05/23 10:47:02;;;;;;;1.73;1.00;;;;;;;;;;4995040;28;20023;-68
2022/05/23 10:49:41;;;;;;;1.33;1.00;;;;;;;;;;4994988;28;20034;-66
2022/05/23 10:52:31;;;;;;;3.15;1.27;;;;;;;;;;4994797;28;20054;-68
2022/05/23 10:55:32;;;;;;;1.77;1.13;;;;;;;;;;4994614;28;20113;-68
2022/05/23 10:58:08;;;;;;;3.50;1.40;;;;;;;;;;4990909;28;20041;-68
2022/05/23 11:00:40;;;;;;;4.00;1.33;;;;;;;;;;4994856;28;20038;-68
2022/05/23 11:03:20;;;;;;;3.38;1.20;;;;;;;;;;4979602;28;20388;-68
2022/05/23 11:06:02;;;;;;;3.70;1.20;;;;;;;;;;4975139;28;20106;-67
2022/05/23 11:08:53;;;;;;;1.70;1.27;;;;;;;;;;4974748;28;20041;-65
2022/05/23 11:11:19;;;;;;;1.92;1.10;;;;;;;;;;4988422;28;20034;-66
2022/05/23 11:14:32;;;;;;;1.83;1.27;;;;;;;;;;4994290;28;20038;-69
2022/05/23 11:17:32;;;;;;;1.38;1.10;;;;;;;;;;4972771;28;20483;-66
2022/05/23 11:20:19;;;;;;;1.77;1.02;;;;;;;;;;4972771;28;20027;-64
2022/05/23 11:23:21;;;;;;;2.55;1.52;;;;;;;;;;4972795;28;20078;-65
2022/05/23 11:25:58;;;;;;;2.85;1.30;;;;;;;;;;4933796;29;20043;-63
2022/05/23 11:34:33;;;;;;;1.55;1.10;;;;;;;;;;4933109;29;20584;-66
2022/05/23 11:39:51;;;;;;;2.20;1.20;;;;;;;;;;4932503;29;20035;-67
2022/05/23 11:42:30;;;;;;;1.38;1.00;;;;;;;;;;4932245;29;20028;-65
2022/05/23 11:48:02;;;;;;;3.00;1.17;;;;;;;;;;4929558;29;20039;-64
2022/05/23 11:50:32;;;;;;;9.00;1.33;;;;;;;;;;4928877;29;20046;-64
2022/05/23 11:53:03;;;;;;;2.15;1.10;;;;;;;;;;4927737;29;20481;-66
2022/05/23 11:55:50;;;;;;;1.60;1.10;;;;;;;;;;4914442;29;20040;-66
2022/05/23 11:58:25;;;;;;;1.75;1.00;;;;;;;;;;4914402;29;20032;-64
2022/05/23 12:01:14;;;;;;;1.67;0.90;;;;;;;;;;4914647;29;20038;-66
2022/05/23 12:03:51;;;;;;;2.13;1.00;;;;;;;;;;4961361;28;20046;-66
2022/05/23 12:06:23;;;;;;;3.55;1.40;;;;;;;;;;4976756;28;20030;-64
2022/05/23 12:08:57;;;;;;;2.63;1.10;;;;;;;;;;4993373;28;20022;-67
2022/05/23 12:11:24;;;;;;;2.67;0.88;;;;;;;;;;4993544;28;20498;-64
2022/05/23 12:13:51;;;;;;;1.58;0.93;;;;;;;;;;4993304;28;20038;-66
2022/05/23 12:16:27;;;;;;;3.17;1.10;;;;;;;;;;4991795;28;20369;-65
2022/05/23 12:19:11;;;;;;;1.70;0.90;;;;;;;;;;4993573;28;20030;-68
2022/05/23 12:21:36;;;;;;;3.22;0.93;;;;;;;;;;4993140;28;20042;-66
2022/05/23 12:24:23;;;;;;;1.35;1.00;;;;;;;;;;4992683;28;20077;-65
2022/05/23 12:26:52;;;;;;;3.70;1.05;;;;;;;;;;4993365;28;20054;-65
2022/05/23 12:29:35;;;;;;;1.50;1.00;;;;;;;;;;4993302;28;20078;-65
2022/05/23 12:32:17;;;;;;;2.10;1.10;;;;;;;;;;4993227;28;20121;-64
2022/05/23 12:34:47;;;;;;;5.18;1.20;;;;;;;;;;4993103;28;20110;-64
2022/05/23 12:37:39;;;;;;;;;;;;;;;;;;4993422;28;20038;-67
2022/05/23 12:40:28;;;;;;;2.72;1.20;;;;;;;;;;4990819;28;19914;-65
2022/05/23 12:43:23;;;;;;;2.88;1.20;;;;;;;;;;4993070;28;20081;-65
2022/05/23 12:46:18;;;;;;;1.98;1.17;;;;;;;;;;4992098;28;20097;-66
2022/05/23 12:48:58;;;;;;;3.58;1.27;;;;;;;;;;4993142;28;20391;-65
2022/05/23 12:51:38;;;;;;;2.22;1.25;;;;;;;;;;4992900;28;20027;-66
2022/05/23 12:54:16;;;;;;;2.35;1.08;;;;;;;;;;4992757;28;20026;-66
2022/05/23 12:56:47;;;;;;;3.80;1.35;;;;;;;;;;4995595;28;20464;-67
2022/05/23 12:59:34;;;;;;;4.22;1.40;;;;;;;;;;4997019;28;20035;-65
2022/05/23 13:02:08;;;;;;;2.35;1.30;;;;;;;;;;4996712;28;20128;-66
2022/05/23 13:04:47;;;;;;;1.83;1.00;;;;;;;;;;4996517;28;20077;-67
2022/05/23 13:07:20;;;;;;;3.05;1.20;;;;;;;;;;4996409;28;20057;-67
2022/05/23 13:09:51;;;;;;;3.50;1.23;;;;;;;;;;4996705;28;20109;-67
2022/05/23 13:12:41;;;;;;;3.97;1.30;;;;;;;;;;4996421;28;20027;-68
2022/05/23 13:15:08;;;;;;;1.75;1.00;;;;;;;;;;4984982;28;20042;-67
2022/05/23 13:17:38;;;;;;;3.28;1.00;;;;;;;;;;4996629;28;20427;-67
2022/05/23 13:22:58;;;;;;;2.53;1.10;;;;;;;;;;4996172;28;20299;-67
2022/05/23 13:25:30;;;;;;;4.05;1.30;;;;;;;;;;4996400;28;20027;-66
2022/05/23 13:27:59;;;;;;;1.27;1.10;;;;;;;;;;4996489;28;20037;-67
2022/05/23 13:30:36;;;;;;;1.63;1.00;;;;;;;;;;4996346;28;20034;-64
2022/05/23 13:33:07;;;;;;;1.98;1.10;;;;;;;;;;4996000;28;20033;-67
2022/05/23 13:35:33;;;;;;;1.40;0.95;;;;;;;;;;4996203;28;20026;-66
2022/05/23 13:38:21;;;;;;;1.67;1.00;;;;;;;;;;4996064;28;20045;-67
2022/05/23 13:40:55;;;;;;;3.75;1.27;;;;;;;;;;4996193;28;20026;-65
2022/05/23 13:43:25;;;;;;;1.35;0.95;;;;;;;;;;4996137;28;20064;-67
2022/05/23 13:46:18;;;;;;;4.43;1.30;;;;;;;;;;4996085;28;20026;-67
2022/05/23 13:48:47;;;;;;;1.67;1.00;;;;;;;;;;4996025;28;20026;-67
2022/05/23 13:51:18;;;;;;;1.92;1.10;;;;;;;;;;4995706;28;20034;-68
2022/05/23 13:53:57;;;;;;;3.13;1.30;;;;;;;;;;4995657;28;20022;-68
2022/05/23 13:56:22;;;;;;;1.88;0.95;;;;;;;;;;4995944;28;20030;-67
2022/05/23 13:58:55;;;;;;;2.47;1.58;;;;;;;;;;4995629;28;20104;-65
2022/05/23 14:01:43;;;;;;;1.77;1.02;;;;;;;;;;4995701;28;20030;-66
2022/05/23 14:04:12;;;;;;;2.03;1.30;;;;;;;;;;4995718;28;20480;-67
2022/05/23 14:06:45;;;;;;;3.28;1.25;;;;;;;;;;4994834;28;20043;-68
2022/05/23 14:09:12;;;;;;;4.35;1.30;;;;;;;;;;4993727;28;20511;-68
2022/05/23 14:11:44;;;;;;;2.70;1.20;;;;;;;;;;4995626;28;20476;-67
2022/05/23 14:14:21;;;;;;;3.97;1.27;;;;;;;;;;4995490;28;20480;-68
2022/05/23 14:16:59;;;;;;;0.80;0.60;;;;;;;;;;4995473;28;20109;-68
2022/05/23 14:19:26;;;;;;;1.70;1.13;;;;;;;;;;4995211;28;20026;-67
2022/05/23 14:22:21;;;;;;;2.20;1.20;;;;;;;;;;4995096;28;20054;-68
2022/05/23 14:24:50;;;;;;;2.00;1.10;;;;;;;;;;4995285;28;20364;-68
2022/05/23 14:27:34;;;;;;;3.33;1.47;;;;;;;;;;4995073;28;20376;-67
2022/05/23 14:30:14;;;;;;;2.63;1.35;;;;;;;;;;4995154;28;20023;-67
2022/05/23 14:32:42;;;;;;;1.95;1.10;;;;;;;;;;4995135;28;20085;-68
2022/05/23 14:35:19;;;;;;;2.75;1.40;;;;;;;;;;4994723;28;20443;-68
2022/05/23 14:37:47;;;;;;;3.30;1.42;;;;;;;;;;4995118;28;20383;-68
2022/05/23 14:40:14;;;;;;;1.60;1.30;;;;;;;;;;4995048;28;20109;-69
2022/05/23 14:42:49;;;;;;;2.08;1.27;;;;;;;;;;4995128;28;20030;-67
2022/05/23 14:45:21;;;;;;;3.28;1.40;;;;;;;;;;4994979;28;20103;-67
2022/05/23 14:48:07;;;;;;;2.40;1.20;;;;;;;;;;4995029;28;20032;-68
2022/05/23 14:50:57;;;;;;;2.67;1.23;;;;;;;;;;4994900;28;20022;-69
2022/05/23 14:56:25;;;;;;;1.67;1.25;;;;;;;;;;4994857;28;20101;-69
2022/05/23 15:01:39;;;;;;;2.53;1.27;;;;;;;;;;4994967;28;20101;-68
2022/05/23 15:04:06;;;;;;;3.47;1.40;;;;;;;;;;4994467;28;20023;-68
2022/05/23 15:06:32;;;;;;;3.47;1.35;;;;;;;;;;4994477;28;20069;-67
2022/05/23 15:09:00;;;;;;;2.10;1.20;;;;;;;;;;4994510;28;20058;-66
2022/05/23 15:11:29;;;;;;;3.38;1.67;;;;;;;;;;4994484;28;20375;-66
2022/05/23 15:13:57;;;;;;;2.67;1.40;;;;;;;;;;4994029;28;20085;-64
2022/05/23 15:16:29;;;;;;;2.75;1.50;;;;;;;;;;4994385;28;20097;-66
2022/05/23 15:18:56;;;;;;;2.38;1.52;;;;;;;;;;4993703;28;20061;-66
2022/05/23 15:21:22;;;;;;;1.40;0.82;;;;;;;;;;4994062;28;20046;-66
2022/05/23 15:23:47;;;;;;;6.47;1.30;;;;;;;;;;4994257;28;20037;-65
2022/05/23 15:26:21;;;;;;;1.15;0.82;;;;;;;;;;4994145;28;20026;-65
2022/05/23 15:28:52;;;;;;;3.30;1.10;;;;;;;;;;4994121;28;20031;-67
2022/05/23 15:31:18;;;;;;;;;;;;;;;;;;4994325;28;20041;-66
2022/05/23 15:33:44;;;;;;;4.30;1.40;;;;;;;;;;4993871;28;20025;-67
2022/05/23 15:36:09;;;;;;;1.77;1.20;;;;;;;;;;4994032;28;20101;-66
2022/05/23 15:38:35;;;;;;;4.50;1.50;;;;;;;;;;4993959;28;20018;-66
2022/05/23 15:41:03;;;;;;;3.97;1.10;;;;;;;;;;4994192;28;20038;-67
2022/05/23 15:43:30;;;;;;;1.83;1.10;;;;;;;;;;4993966;28;20369;-66
2022/05/23 15:45:55;;;;;;;1.55;1.10;;;;;;;;;;4994181;28;20088;-66
2022/05/23 15:48:22;;;;;;;1.83;1.08;;;;;;;;;;4993710;28;20050;-67
2022/05/23 15:50:48;;;;;;;1.52;0.98;;;;;;;;;;4993842;28;20026;-65
2022/05/23 15:53:15;;;;;;;2.88;1.40;;;;;;;;;;4993741;28;20037;-64
2022/05/23 15:55:44;;;;;;;2.55;1.30;;;;;;;;;;4992443;28;20388;-65
2022/05/23 15:58:12;;;;;;;4.40;1.30;;;;;;;;;;4993908;28;20027;-65
2022/05/23 16:00:38;;;;;;;1.50;0.90;;;;;;;;;;4993488;28;20062;-67
2022/05/23 16:03:08;;;;;;;2.03;1.30;;;;;;;;;;4993452;28;20061;-65
2022/05/23 16:05:36;;;;;;;4.75;1.40;;;;;;;;;;4993745;28;20161;-67
2022/05/23 16:08:02;;;;;;;3.22;1.48;;;;;;;;;;4992061;28;20399;-66
2022/05/23 16:10:28;;;;;;;1.67;0.98;;;;;;;;;;4993685;28;20058;-67
2022/05/23 16:12:57;;;;;;;1.80;1.30;;;;;;;;;;4993387;28;20136;-66
2022/05/23 16:15:24;;;;;;;2.80;1.60;;;;;;;;;;4993142;28;20501;-66
2022/05/23 16:17:53;;;;;;;2.30;1.20;;;;;;;;;;4993435;28;20112;-66
2022/05/23 16:20:20;;;;;;;1.92;1.15;;;;;;;;;;4993522;28;20109;-67
2022/05/23 16:22:47;;;;;;;1.67;1.02;;;;;;;;;;4985810;28;20452;-65